| time (UTC) | temp C | wind direction | speed KPH | gust KPH | rain 1hr cm | rain 24hr cm | rain mn cm | humidity % | barometer mb |
| 20260905235252 | 18 | 330 | 0.0 | 3.2 | 0.00 | 0.00 | 0.00 | 66 | |
| 20260905234310 | 18 | 330 | 1.6 | 3.2 | 0.00 | 0.00 | 0.00 | 65 | |
| 20260905233230 | 18 | 51 | 3.2 | 4.8 | 0.00 | 0.00 | 0.00 | 64 | |
| 20260905232251 | 18 | 12 | 0.0 | 3.2 | 0.00 | 0.00 | 0.00 | 64 | |
| 20260905231231 | 18 | 48 | 3.2 | 3.2 | 0.00 | 0.00 | 0.00 | 64 | |
| 20260905230231 | 18 | 0.0 | 0.0 | 0.00 | 0.00 | 0.00 | 64 | ||
| 20260905225231 | 18 | 0.0 | 0.0 | 0.00 | 0.00 | 0.00 | 65 | ||
| 20260905224230 | 18 | 0.0 | 0.0 | 0.00 | 0.00 | 0.00 | 65 | ||
| 20260905223230 | 18 | 278 | 1.6 | 1.6 | 0.00 | 0.00 | 0.00 | 65 | |
| 20260905222230 | 17 | 324 | 3.2 | 4.8 | 0.00 | 0.00 | 0.00 | 64 | |
| 20260905221313 | 17 | 0.0 | 0.0 | 0.00 | 0.00 | 0.00 | 66 | ||
| 20260905220251 | 16 | 0.0 | 0.0 | 0.00 | 0.00 | 0.00 | 67 | ||
| 20260905215231 | 16 | 0.0 | 0.0 | 0.00 | 0.00 | 0.00 | 68 | ||
| 20260905214230 | 16 | 0.0 | 0.0 | 0.00 | 0.00 | 0.00 | 67 | ||
| 20260905213231 | 16 | 0.0 | 0.0 | 0.00 | 0.00 | 0.00 | 66 | ||
| 20260905212230 | 17 | 0.0 | 0.0 | 0.00 | 0.00 | 0.00 | 66 | ||
| 20260905211231 | 17 | 0.0 | 0.0 | 0.00 | 0.00 | 0.00 | 65 | ||
| 20260905210231 | 18 | 0.0 | 0.0 | 0.00 | 0.00 | 0.00 | 60 | ||
| 20260905205231 | 18 | 0.0 | 0.0 | 0.00 | 0.00 | 0.00 | 59 | ||
| 20260905204231 | 18 | 0.0 | 0.0 | 0.00 | 0.00 | 0.00 | 59 | ||
| 20260905203231 | 19 | 0.0 | 0.0 | 0.00 | 0.00 | 0.00 | 59 | ||
| 20260905202230 | 19 | 24 | 3.2 | 4.8 | 0.00 | 0.00 | 0.00 | 57 | |
| 20260905201231 | 19 | 310 | 3.2 | 4.8 | 0.00 | 0.00 | 0.00 | 57 | |
| 20260905200231 | 19 | 330 | 3.2 | 4.8 | 0.00 | 0.00 | 0.00 | 59 | |
| 20260905195231 | 19 | 307 | 3.2 | 4.8 | 0.00 | 0.00 | 0.00 | 59 | |
| 20260905194230 | 19 | 0.0 | 0.0 | 0.00 | 0.00 | 0.00 | 60 | ||
| 20260905193231 | 19 | 276 | 1.6 | 3.2 | 0.00 | 0.00 | 0.00 | 61 | |
| 20260905192231 | 19 | 354 | 1.6 | 3.2 | 0.00 | 0.00 | 0.00 | 61 | |
| 20260905191231 | 19 | 0.0 | 0.0 | 0.00 | 0.00 | 0.00 | 62 | ||
| 20260905190231 | 19 | 58 | 0.0 | 3.2 | 0.00 | 0.00 | 0.00 | 62 | |
| 20260905185251 | 19 | 276 | 1.6 | 3.2 | 0.00 | 0.00 | 0.00 | 62 | |
| 20260905184233 | 19 | 312 | 0.0 | 3.2 | 0.00 | 0.00 | 0.00 | 62 | |
| 20260905183231 | 19 | 336 | 1.6 | 3.2 | 0.00 | 0.00 | 0.00 | 62 | |
| 20260905182219 | 19 | 270 | 1.6 | 1.6 | 0.00 | 0.00 | 0.00 | 61 | |
| 20260905181219 | 19 | 12 | 3.2 | 4.8 | 0.00 | 0.00 | 0.00 | 60 | |
| 20260905180238 | 19 | 0.0 | 0.0 | 0.00 | 0.00 | 0.00 | 59 | ||
| 20260905175219 | 19 | 294 | 1.6 | 3.2 | 0.00 | 0.00 | 0.00 | 59 | |
| 20260905174251 | 20 | 0.0 | 0.0 | 0.00 | 0.00 | 0.00 | 57 | ||
| 20260905173218 | 20 | 0.0 | 0.0 | 0.00 | 0.00 | 0.00 | 56 | ||
| 20260905172218 | 20 | 0.0 | 0.0 | 0.00 | 0.00 | 0.00 | 55 | ||
| 20260905171219 | 20 | 329 | 3.2 | 3.2 | 0.00 | 0.00 | 0.00 | 54 | |
| 20260905170218 | 21 | 301 | 3.2 | 4.8 | 0.00 | 0.00 | 0.00 | 53 | |
| 20260905165218 | 21 | 325 | 4.8 | 4.8 | 0.00 | 0.00 | 0.00 | 52 | |
| 20260905164219 | 21 | 274 | 3.2 | 4.8 | 0.00 | 0.00 | 0.00 | 51 | |
| 20260905163219 | 21 | 270 | 1.6 | 4.8 | 0.00 | 0.00 | 0.00 | 51 | |
| 20260905162218 | 22 | 67 | 3.2 | 4.8 | 0.00 | 0.00 | 0.00 | 50 | |
| 20260905161219 | 21 | 18 | 4.8 | 4.8 | 0.00 | 0.00 | 0.00 | 51 | |
| 20260905160219 | 22 | 319 | 4.8 | 4.8 | 0.00 | 0.00 | 0.00 | 51 | |
| 20260905155218 | 21 | 19 | 3.2 | 3.2 | 0.00 | 0.00 | 0.00 | 51 | |
| 20260905154219 | 21 | 333 | 4.8 | 8.0 | 0.00 | 0.00 | 0.00 | 51 | |
| 20260905153259 | 21 | 70 | 1.6 | 3.2 | 0.00 | 0.00 | 0.00 | 50 | |
| 20260905152219 | 21 | 34 | 1.6 | 3.2 | 0.00 | 0.00 | 0.00 | 50 | |
| 20260905151219 | 21 | 314 | 4.8 | 6.4 | 0.00 | 0.00 | 0.00 | 49 | |
| 20260905150219 | 21 | 328 | 3.2 | 3.2 | 0.00 | 0.00 | 0.00 | 48 | |
| 20260905145218 | 21 | 328 | 8.0 | 9.7 | 0.00 | 0.00 | 0.00 | 48 | |
| 20260905144219 | 21 | 342 | 3.2 | 4.8 | 0.00 | 0.00 | 0.00 | 46 | |
| 20260905143218 | 21 | 282 | 3.2 | 4.8 | 0.00 | 0.00 | 0.00 | 46 | |
| 20260905142219 | 21 | 276 | 1.6 | 3.2 | 0.00 | 0.00 | 0.00 | 47 | |
| 20260905141219 | 21 | 295 | 6.4 | 8.0 | 0.00 | 0.00 | 0.00 | 46 | |
| 20260905140219 | 21 | 351 | 4.8 | 6.4 | 0.00 | 0.00 | 0.00 | 46 | |
| 20260905135219 | 21 | 348 | 4.8 | 6.4 | 0.00 | 0.00 | 0.00 | 46 | |
| 20260905134219 | 21 | 292 | 9.7 | 9.7 | 0.00 | 0.00 | 0.00 | 45 | |
| 20260905133219 | 22 | 315 | 3.2 | 4.8 | 0.00 | 0.00 | 0.00 | 44 | |
| 20260905132219 | 22 | 328 | 8.0 | 11.3 | 0.00 | 0.00 | 0.00 | 43 | |
| 20260905131219 | 22 | 2 | 8.0 | 9.7 | 0.00 | 0.00 | 0.00 | 43 | |
| 20260905130219 | 22 | 303 | 4.8 | 6.4 | 0.00 | 0.00 | 0.00 | 42 | |
| 20260905125219 | 22 | 320 | 6.4 | 8.0 | 0.00 | 0.00 | 0.00 | 42 | |
| 20260905124219 | 22 | 305 | 9.7 | 9.7 | 0.00 | 0.00 | 0.00 | 42 | |
| 20260905123219 | 22 | 304 | 8.0 | 8.0 | 0.00 | 0.00 | 0.00 | 43 | |
| 20260905122219 | 22 | 303 | 6.4 | 8.0 | 0.00 | 0.00 | 0.00 | 44 | |
| 20260905121219 | 22 | 299 | 4.8 | 6.4 | 0.00 | 0.00 | 0.00 | 45 | |
| 20260905120250 | 21 | 352 | 8.0 | 9.7 | 0.00 | 0.00 | 0.00 | 47 | |
| 20260905115230 | 21 | 330 | 6.4 | 9.7 | 0.00 | 0.00 | 0.00 | 49 | |
| 20260905114230 | 21 | 318 | 6.4 | 8.0 | 0.00 | 0.00 | 0.00 | 50 | |
| 20260905113230 | 20 | 359 | 8.0 | 11.3 | 0.00 | 0.00 | 0.00 | 52 | |
| 20260905112231 | 19 | 300 | 0.0 | 1.6 | 0.00 | 0.00 | 0.00 | 60 | |
| 20260905111231 | 17 | 317 | 1.6 | 3.2 | 0.00 | 0.00 | 0.00 | 68 | |
| 20260905110230 | 17 | 270 | 0.0 | 1.6 | 0.00 | 0.00 | 0.00 | 72 | |
| 20260905105230 | 17 | 5 | 3.2 | 3.2 | 0.00 | 0.00 | 0.00 | 71 | |
| 20260905104230 | 19 | 288 | 4.8 | 6.4 | 0.00 | 0.00 | 0.00 | 55 | |
| 20260905103230 | 20 | 293 | 6.4 | 8.0 | 0.00 | 0.00 | 0.00 | 55 | |
| 20260905102230 | 20 | 356 | 8.0 | 8.0 | 0.00 | 0.00 | 0.00 | 49 | |
| 20260905101229 | 21 | 299 | 8.0 | 9.7 | 0.00 | 0.00 | 0.00 | 45 | |
| 20260905100232 | 21 | 337 | 4.8 | 6.4 | 0.00 | 0.00 | 0.00 | 46 | |
| 20260905095230 | 22 | 66 | 3.2 | 4.8 | 0.00 | 0.00 | 0.00 | 45 | |
| 20260905094230 | 22 | 321 | 6.4 | 8.0 | 0.00 | 0.00 | 0.00 | 44 | |
| 20260905093229 | 22 | 320 | 6.4 | 9.7 | 0.00 | 0.00 | 0.00 | 44 | |
| 20260905092229 | 21 | 322 | 4.8 | 6.4 | 0.00 | 0.00 | 0.00 | 47 | |
| 20260905091229 | 21 | 308 | 4.8 | 8.0 | 0.00 | 0.00 | 0.00 | 48 | |
| 20260905090229 | 21 | 308 | 4.8 | 6.4 | 0.00 | 0.00 | 0.00 | 47 | |
| 20260905085229 | 22 | 311 | 4.8 | 6.4 | 0.00 | 0.00 | 0.00 | 48 | |
| 20260905084229 | 22 | 322 | 4.8 | 8.0 | 0.00 | 0.00 | 0.00 | 50 | |
| 20260905083229 | 22 | 281 | 6.4 | 8.0 | 0.00 | 0.00 | 0.00 | 50 | |
| 20260905082249 | 22 | 263 | 3.2 | 4.8 | 0.00 | 0.00 | 0.00 | 51 | |
| 20260905081229 | 21 | 311 | 9.7 | 11.3 | 0.00 | 0.00 | 0.00 | 52 | |
| 20260905080229 | 22 | 334 | 8.0 | 14.5 | 0.00 | 0.00 | 0.00 | 53 | |
| 20260905075229 | 22 | 95 | 8.0 | 12.9 | 0.00 | 0.00 | 0.00 | 55 | |
| 20260905074229 | 22 | 310 | 9.7 | 11.3 | 0.00 | 0.00 | 0.00 | 57 | |
| 20260905073229 | 21 | 297 | 9.7 | 11.3 | 0.00 | 0.00 | 0.00 | 59 | |
| 20260905072229 | 21 | 290 | 8.0 | 11.3 | 0.00 | 0.00 | 0.00 | 59 | |
| 20260905071229 | 21 | 317 | 8.0 | 9.7 | 0.00 | 0.00 | 0.00 | 60 | |
| 20260905070229 | 22 | 318 | 8.0 | 11.3 | 0.00 | 0.00 | 0.00 | 59 | |
| 20260905065229 | 22 | 284 | 6.4 | 8.0 | 0.00 | 0.00 | 0.00 | 58 | |
| 20260905064229 | 22 | 284 | 6.4 | 9.7 | 0.00 | 0.00 | 0.00 | 58 | |
| 20260905063229 | 22 | 259 | 8.0 | 9.7 | 0.00 | 0.00 | 0.00 | 56 | |
| 20260905062229 | 23 | 331 | 6.4 | 8.0 | 0.00 | 0.00 | 0.00 | 55 | |
| 20260905061229 | 23 | 311 | 6.4 | 9.7 | 0.00 | 0.00 | 0.00 | 54 | |
| 20260905060229 | 23 | 316 | 6.4 | 9.7 | 0.00 | 0.00 | 0.00 | 51 | |
| 20260905055229 | 24 | 284 | 4.8 | 6.4 | 0.00 | 0.00 | 0.00 | 50 | |
| 20260905054229 | 24 | 36 | 1.6 | 3.2 | 0.00 | 0.00 | 0.00 | 50 | |
| 20260905053229 | 23 | 342 | 1.6 | 3.2 | 0.00 | 0.00 | 0.00 | 50 | |
| 20260905052229 | 23 | 297 | 3.2 | 4.8 | 0.00 | 0.00 | 0.00 | 51 | |
| 20260905051229 | 23 | 291 | 1.6 | 3.2 | 0.00 | 0.00 | 0.00 | 52 | |
| 20260905050229 | 22 | 0.0 | 0.0 | 0.00 | 0.00 | 0.00 | 53 | ||
| 20260905045251 | 21 | 0.0 | 0.0 | 0.00 | 0.00 | 0.00 | 56 | ||
| 20260905044229 | 20 | 0.0 | 0.0 | 0.00 | 0.00 | 0.00 | 63 | ||
| 20260905043229 | 19 | 0.0 | 0.0 | 0.00 | 0.00 | 0.00 | 66 | ||
| 20260905042229 | 19 | 0.0 | 0.0 | 0.00 | 0.00 | 0.00 | 66 | ||
| 20260905041229 | 18 | 0.0 | 0.0 | 0.00 | 0.00 | 0.00 | 67 | ||
| 20260905040229 | 19 | 0.0 | 0.0 | 0.00 | 0.00 | 0.00 | 67 | ||
| 20260905035229 | 19 | 0.0 | 0.0 | 0.00 | 0.00 | 0.00 | 66 | ||
| 20260905034229 | 19 | 0.0 | 0.0 | 0.00 | 0.00 | 0.00 | 65 | ||
| 20260905033250 | 20 | 0.0 | 0.0 | 0.00 | 0.00 | 0.00 | 64 | ||
| 20260905032229 | 20 | 0.0 | 0.0 | 0.00 | 0.00 | 0.00 | 63 | ||
| 20260905031231 | 20 | 0.0 | 0.0 | 0.00 | 0.00 | 0.00 | 63 | ||
| 20260905030229 | 20 | 0.0 | 0.0 | 0.00 | 0.00 | 0.00 | 62 | ||
| 20260905025229 | 20 | 0.0 | 0.0 | 0.00 | 0.00 | 0.00 | 62 | ||
| 20260905024229 | 20 | 0.0 | 0.0 | 0.00 | 0.00 | 0.00 | 62 | ||
| 20260905023249 | 21 | 0.0 | 0.0 | 0.00 | 0.00 | 0.00 | 61 | ||
| 20260905022229 | 21 | 0.0 | 0.0 | 0.00 | 0.00 | 0.00 | 60 | ||
| 20260905021229 | 21 | 0.0 | 0.0 | 0.00 | 0.00 | 0.00 | 59 | ||
| 20260905020229 | 21 | 0.0 | 0.0 | 0.00 | 0.00 | 0.00 | 58 | ||
| 20260905015229 | 21 | 0.0 | 0.0 | 0.00 | 0.00 | 0.00 | 57 | ||
| 20260905014229 | 22 | 0.0 | 0.0 | 0.00 | 0.00 | 0.00 | 56 | ||
| 20260905013229 | 22 | 300 | 0.0 | 3.2 | 0.00 | 0.00 | 0.00 | 55 | |
| 20260905012230 | 22 | 0.0 | 0.0 | 0.00 | 0.00 | 0.00 | 55 | ||
| 20260905011229 | 22 | 294 | 3.2 | 3.2 | 0.00 | 0.00 | 0.00 | 55 | |
| 20260905010230 | 22 | 90 | 1.6 | 3.2 | 0.00 | 0.00 | 0.00 | 54 | |
| 20260905005229 | 22 | 94 | 1.6 | 1.6 | 0.00 | 0.00 | 0.00 | 54 | |
| 20260905004230 | 22 | 0.0 | 0.0 | 0.00 | 0.00 | 0.00 | 52 | ||
| 20260905003229 | 22 | 0.0 | 0.0 | 0.00 | 0.00 | 0.00 | 51 | ||
| 20260905002230 | 23 | 0.0 | 0.0 | 0.00 | 0.00 | 0.00 | 51 | ||
| 20260905001229 | 23 | 0.0 | 0.0 | 0.00 | 0.00 | 0.00 | 50 | ||
| 20260905000250 | 23 | 48 | 0.0 | 1.6 | 0.00 | 0.00 | 0.00 | 49 |